Archival Weather

Sydney Intl

Sydney, Australia (YSSY)

Report from: Sunday, March 19, 2023 3:00 PM AEDT
Current time: Tuesday, February 27, 2024 8:57 PM AEDT

Current weather – Weather history – Daily summaries
Weather forecast

Present weatherTO
Temperature32.0°C (89.6°F)
Heat index34.9°C (94.9°F)
Dew point21.0°C (69.8°F)
Winds 10 kts (5.1 m/s, 11.5 mph) East-Southeast (110°)
Visibility6.2 mi. (10 km)
Clouds Few clouds 500 ft. (152 m)
Altimeter29.97 in.Hg (1015 mB)
Relative humidity52 %
Density altitude2,218 ft. (676 m)
Flight conditions Visual Meteorological Conditions
Raw dataYSSY 190400Z 11010KT 9999 FEW005 32/21 Q1015 SEA FOG TO E/SE
An error has occurred. This application may no longer respond until reloaded. Reload 🗙